createdAt,value
2022-08-05T00:00:00.331Z,26.31
2022-08-05T00:02:28.677Z,26.27
2022-08-05T00:04:57.040Z,26.26
2022-08-05T00:07:58.917Z,26.26
2022-08-05T00:10:12.442Z,26.25
2022-08-05T00:12:56.060Z,26.24
2022-08-05T00:15:55.779Z,26.24
2022-08-05T00:18:21.444Z,26.18
2022-08-05T00:20:50.722Z,26.19
2022-08-05T00:23:44.482Z,26.14
2022-08-05T00:26:07.294Z,26.09
2022-08-05T00:28:35.529Z,26.12
2022-08-05T00:31:04.780Z,26.10
2022-08-05T00:34:54.675Z,26.09
2022-08-05T00:37:10.662Z,26.10
2022-08-05T00:39:13.679Z,26.08
2022-08-05T00:41:55.114Z,26.07
2022-08-05T00:44:30.358Z,26.06
2022-08-05T00:47:02.042Z,26.04
2022-08-05T00:49:44.734Z,26.01
2022-08-05T00:52:28.417Z,25.97
2022-08-05T00:54:56.780Z,25.91
2022-08-05T00:57:25.446Z,25.89
2022-08-05T01:00:10.994Z,25.88
2022-08-05T01:02:38.733Z,25.91
2022-08-05T01:05:10.152Z,25.86
2022-08-05T01:07:37.780Z,25.87
2022-08-05T01:10:30.734Z,25.78
2022-08-05T01:13:13.084Z,25.77
2022-08-05T01:15:56.595Z,25.74
2022-08-05T01:18:29.838Z,25.73
2022-08-05T01:21:37.761Z,25.66
2022-08-05T01:24:22.096Z,25.63
2022-08-05T01:27:24.998Z,25.60
2022-08-05T01:29:58.221Z,25.59
2022-08-05T01:32:29.786Z,25.59
2022-08-05T01:35:03.385Z,25.52
2022-08-05T01:37:44.810Z,25.46
2022-08-05T01:40:18.034Z,25.43
2022-08-05T01:42:47.027Z,25.38
2022-08-05T01:45:16.582Z,25.35
2022-08-05T01:47:46.474Z,25.28
2022-08-05T01:50:29.786Z,25.22
2022-08-05T01:53:04.434Z,25.16
2022-08-05T01:55:36.083Z,25.13
2022-08-05T01:58:13.190Z,25.00
2022-08-05T02:00:49.024Z,24.91
2022-08-05T02:03:34.129Z,24.79
2022-08-05T02:06:37.488Z,24.72
2022-08-05T02:08:58.137Z,24.63
2022-08-05T02:11:32.826Z,24.55
2022-08-05T02:14:08.379Z,24.58
2022-08-05T02:16:46.519Z,24.65
2022-08-05T02:19:25.223Z,24.61
2022-08-05T02:22:25.957Z,24.58
2022-08-05T02:25:03.337Z,24.62
2022-08-05T02:27:58.565Z,24.57
2022-08-05T02:30:26.831Z,24.53
2022-08-05T02:33:00.152Z,24.56
2022-08-05T02:35:37.390Z,24.52
2022-08-05T02:38:09.505Z,24.49
2022-08-05T02:40:41.029Z,24.46
2022-08-05T02:43:11.266Z,24.41
2022-08-05T02:45:51.423Z,24.31
2022-08-05T02:48:28.844Z,24.26
2022-08-05T02:51:00.380Z,24.19
2022-08-05T02:53:38.961Z,24.12
2022-08-05T02:56:09.378Z,24.12
2022-08-05T02:58:43.514Z,24.09
2022-08-05T03:01:17.425Z,24.04
2022-08-05T03:04:02.782Z,24.00
2022-08-05T03:06:54.362Z,24.00
2022-08-05T03:09:36.137Z,24.04
2022-08-05T03:12:04.979Z,24.03
2022-08-05T03:14:32.532Z,24.03
2022-08-05T03:17:00.628Z,24.04
2022-08-05T03:19:34.164Z,24.03
2022-08-05T03:22:04.822Z,24.00
2022-08-05T03:24:47.167Z,23.98
2022-08-05T03:27:19.109Z,23.94
2022-08-05T03:30:07.394Z,23.95
2022-08-05T03:32:34.697Z,23.89
2022-08-05T03:35:04.495Z,23.90
2022-08-05T03:37:46.152Z,23.85
2022-08-05T03:40:15.486Z,23.91
2022-08-05T03:42:59.555Z,23.94
2022-08-05T03:45:57.484Z,23.94
2022-08-05T03:48:26.894Z,23.93
2022-08-05T03:52:36.629Z,23.95
2022-08-05T03:55:51.988Z,23.95
2022-08-05T03:57:41.865Z,23.92
2022-08-05T04:00:16.291Z,23.94
2022-08-05T04:02:58.718Z,23.88
2022-08-05T04:05:35.309Z,23.76
2022-08-05T04:08:14.494Z,23.72
2022-08-05T04:10:53.763Z,23.80
2022-08-05T04:13:22.813Z,23.83
2022-08-05T04:16:04.284Z,23.82
2022-08-05T04:18:34.231Z,23.82
2022-08-05T04:21:03.969Z,23.76
2022-08-05T04:24:06.045Z,23.74
2022-08-05T04:26:20.393Z,23.74
2022-08-05T04:28:51.823Z,23.78
2022-08-05T04:31:20.375Z,23.80
2022-08-05T04:34:18.181Z,23.87
2022-08-05T04:36:44.651Z,23.89
2022-08-05T04:39:13.971Z,23.92
2022-08-05T04:41:41.418Z,23.89
2022-08-05T04:44:09.909Z,23.91
2022-08-05T04:46:38.635Z,24.04
2022-08-05T04:49:12.411Z,24.07
2022-08-05T04:51:44.024Z,23.99
2022-08-05T04:54:12.208Z,23.83
2022-08-05T04:56:40.113Z,23.91
2022-08-05T04:59:22.009Z,23.99
2022-08-05T05:02:35.538Z,23.98
2022-08-05T05:04:47.768Z,23.80
2022-08-05T05:07:18.219Z,23.78
2022-08-05T05:09:52.137Z,23.90
2022-08-05T05:12:21.332Z,24.01
2022-08-05T05:14:50.912Z,23.98
2022-08-05T05:17:23.879Z,24.00
2022-08-05T05:19:55.102Z,24.08
2022-08-05T05:22:26.430Z,24.19
2022-08-05T05:25:00.231Z,24.36
2022-08-05T05:27:41.781Z,24.47
2022-08-05T05:30:30.659Z,24.53
2022-08-05T05:33:03.848Z,24.67
2022-08-05T05:35:42.549Z,24.89
2022-08-05T05:38:13.232Z,25.16
2022-08-05T05:40:49.631Z,25.41
2022-08-05T05:43:22.185Z,25.83
2022-08-05T05:46:12.239Z,26.33
2022-08-05T05:48:44.708Z,26.83
2022-08-05T05:51:19.838Z,27.27
2022-08-05T05:53:57.902Z,27.53
2022-08-05T05:56:31.609Z,27.58
2022-08-05T05:59:07.528Z,27.45
2022-08-05T06:01:40.438Z,27.37
2022-08-05T06:04:24.707Z,27.36
2022-08-05T06:06:52.598Z,27.42
2022-08-05T06:09:24.777Z,27.44
2022-08-05T06:12:00.035Z,27.39
2022-08-05T06:14:30.817Z,27.17
2022-08-05T06:16:58.693Z,27.22
2022-08-05T06:19:34.640Z,27.11
2022-08-05T06:22:07.847Z,27.13
2022-08-05T06:24:41.596Z,27.37
2022-08-05T06:27:20.004Z,27.17
2022-08-05T06:30:17.940Z,27.28
2022-08-05T06:32:48.408Z,27.13
2022-08-05T06:36:03.886Z,27.03
2022-08-05T06:38:10.089Z,27.02
2022-08-05T06:40:44.355Z,27.12
2022-08-05T06:43:58.137Z,27.32
2022-08-05T06:46:07.277Z,27.34
2022-08-05T06:48:55.318Z,27.27
2022-08-05T06:51:29.980Z,27.34
2022-08-05T06:54:03.269Z,27.61
2022-08-05T06:56:34.189Z,27.89
2022-08-05T06:59:09.554Z,28.02
2022-08-05T07:01:40.680Z,27.83
2022-08-05T07:04:08.842Z,27.83
2022-08-05T07:06:36.032Z,27.75
2022-08-05T07:09:04.722Z,27.77
2022-08-05T07:11:37.104Z,27.60
2022-08-05T07:14:30.373Z,27.68
2022-08-05T07:18:08.750Z,27.73
2022-08-05T07:20:34.124Z,27.83
2022-08-05T07:22:38.180Z,27.83
2022-08-05T07:25:23.515Z,27.85
2022-08-05T07:28:00.083Z,27.78
2022-08-05T07:30:39.160Z,27.59
2022-08-05T07:33:15.585Z,27.54
2022-08-05T07:36:03.870Z,27.41
2022-08-05T07:38:34.237Z,27.21
2022-08-05T07:42:07.128Z,26.98
2022-08-05T07:43:57.902Z,26.92
2022-08-05T07:46:31.466Z,26.92
2022-08-05T07:49:05.912Z,26.84
2022-08-05T07:51:40.911Z,27.02
2022-08-05T07:54:23.117Z,27.19
2022-08-05T07:57:01.385Z,27.65
2022-08-05T07:59:39.708Z,27.62
2022-08-05T08:02:16.203Z,27.96
2022-08-05T08:04:49.485Z,27.91
2022-08-05T08:07:22.489Z,28.24
2022-08-05T08:09:52.730Z,28.51
2022-08-05T08:12:33.377Z,28.73
2022-08-05T08:15:09.688Z,29.24
2022-08-05T08:17:46.116Z,29.49
2022-08-05T08:20:43.691Z,28.70
2022-08-05T08:23:07.519Z,28.97
2022-08-05T08:25:59.245Z,28.87
2022-08-05T08:28:36.586Z,28.75
2022-08-05T08:31:08.196Z,28.44
2022-08-05T08:33:38.063Z,28.78
2022-08-05T08:38:57.376Z,29.13
2022-08-05T08:41:52.393Z,29.15
2022-08-05T08:45:21.152Z,29.55
2022-08-05T08:47:47.061Z,29.99
2022-08-05T08:50:22.655Z,30.58
2022-08-05T08:52:51.672Z,30.97
2022-08-05T08:56:02.163Z,30.69
2022-08-05T08:58:10.643Z,30.50
2022-08-05T09:00:42.384Z,30.59
2022-08-05T09:03:16.320Z,31.43
2022-08-05T09:06:08.148Z,32.14
2022-08-05T09:08:40.233Z,32.55
2022-08-05T09:11:12.154Z,31.65
2022-08-05T09:14:09.182Z,31.65
2022-08-05T09:16:30.887Z,32.07
2022-08-05T09:18:59.440Z,32.21
2022-08-05T09:22:17.976Z,32.93
2022-08-05T09:24:16.144Z,33.60
2022-08-05T09:26:50.361Z,33.94
2022-08-05T09:29:19.850Z,34.32
2022-08-05T09:32:41.581Z,34.46
2022-08-05T09:34:58.359Z,35.15
2022-08-05T09:38:18.484Z,34.78
2022-08-05T09:40:33.291Z,34.98
2022-08-05T09:43:08.535Z,34.84
2022-08-05T09:46:06.857Z,33.44
2022-08-05T09:48:33.779Z,34.05
2022-08-05T09:51:03.891Z,34.23
2022-08-05T09:53:54.772Z,34.66
2022-08-05T09:56:33.378Z,34.73
2022-08-05T09:59:04.335Z,34.12
2022-08-05T10:01:33.841Z,34.19
2022-08-05T10:04:10.581Z,34.69
2022-08-05T10:06:40.612Z,34.91
2022-08-05T10:09:27.303Z,34.62
2022-08-05T10:12:18.907Z,34.47
2022-08-05T10:15:20.192Z,34.92
2022-08-05T10:18:12.053Z,35.39
2022-08-05T10:20:51.222Z,36.10
2022-08-05T10:23:59.824Z,35.64
2022-08-05T10:26:32.692Z,36.02
2022-08-05T10:29:02.591Z,35.85
2022-08-05T10:33:02.199Z,35.86
2022-08-05T10:34:17.686Z,36.02
2022-08-05T10:36:53.590Z,36.38
2022-08-05T10:40:03.585Z,36.64
2022-08-05T10:42:33.813Z,36.23
2022-08-05T10:45:21.206Z,35.93
2022-08-05T10:48:27.651Z,36.35
2022-08-05T10:51:05.816Z,36.86
2022-08-05T10:53:55.376Z,36.94
2022-08-05T10:56:26.274Z,36.76
2022-08-05T10:58:53.746Z,37.28
2022-08-05T11:01:55.275Z,37.24
2022-08-05T11:04:26.362Z,36.88
2022-08-05T11:07:04.515Z,37.35
2022-08-05T11:10:09.629Z,37.08
2022-08-05T11:12:38.319Z,37.86
2022-08-05T11:15:59.513Z,37.63
2022-08-05T11:18:30.026Z,36.04
2022-08-05T11:21:02.007Z,35.72
2022-08-05T11:24:05.570Z,36.80
2022-08-05T11:26:28.815Z,37.33
2022-08-05T11:29:13.015Z,37.03
2022-08-05T11:31:57.909Z,36.27
2022-08-05T11:34:51.102Z,36.45
2022-08-05T11:38:26.768Z,37.21
2022-08-05T11:41:01.333Z,38.16
2022-08-05T11:44:06.291Z,38.31
2022-08-05T11:46:58.076Z,38.74
2022-08-05T11:49:38.263Z,39.11
2022-08-05T11:52:11.593Z,39.23
2022-08-05T11:54:41.589Z,39.34
2022-08-05T11:57:25.839Z,38.65
2022-08-05T11:59:55.203Z,37.02
2022-08-05T12:02:33.110Z,37.38
2022-08-05T12:05:07.979Z,37.40
2022-08-05T12:08:03.609Z,34.35
2022-08-05T12:10:45.783Z,34.45
2022-08-05T12:13:28.330Z,34.35
2022-08-05T12:16:17.865Z,34.70
2022-08-05T12:18:48.716Z,34.97
2022-08-05T12:21:30.327Z,34.34
2022-08-05T12:24:09.690Z,34.32
2022-08-05T12:26:39.550Z,34.42
2022-08-05T12:29:17.925Z,34.75
2022-08-05T12:31:54.351Z,34.57
2022-08-05T12:34:37.142Z,34.17
2022-08-05T12:37:21.543Z,34.26
2022-08-05T12:39:52.007Z,34.20
2022-08-05T12:42:25.360Z,34.02
2022-08-05T12:45:11.291Z,33.89
2022-08-05T12:47:43.568Z,33.80
2022-08-05T12:50:26.611Z,33.73
2022-08-05T12:52:59.949Z,33.93
2022-08-05T12:55:33.060Z,34.10
2022-08-05T12:58:50.750Z,34.23
2022-08-05T13:02:03.859Z,34.46
2022-08-05T13:03:42.119Z,34.26
2022-08-05T13:06:15.936Z,34.11
2022-08-05T13:08:50.776Z,34.27
2022-08-05T13:11:25.616Z,34.08
2022-08-05T13:14:19.896Z,33.42
2022-08-05T13:16:58.727Z,33.73
2022-08-05T13:19:51.808Z,33.85
2022-08-05T13:22:29.554Z,34.28
2022-08-05T13:25:00.580Z,34.36
2022-08-05T13:27:38.204Z,34.00
2022-08-05T13:30:33.619Z,33.86
2022-08-05T13:32:56.446Z,34.22
2022-08-05T13:35:43.191Z,34.50
2022-08-05T13:38:20.261Z,34.61
2022-08-05T13:41:00.210Z,34.68
2022-08-05T13:43:45.235Z,34.60
2022-08-05T13:46:16.313Z,34.02
2022-08-05T13:49:00.893Z,34.06
2022-08-05T13:51:40.261Z,34.05
2022-08-05T13:54:12.258Z,33.99
2022-08-05T13:56:51.147Z,33.81
2022-08-05T13:59:24.564Z,33.81
2022-08-05T14:01:57.673Z,34.07
2022-08-05T14:04:54.873Z,34.19
2022-08-05T14:08:00.793Z,34.23
2022-08-05T14:10:28.509Z,34.18
2022-08-05T14:12:57.216Z,34.35
2022-08-05T14:16:09.087Z,34.16
2022-08-05T14:18:17.843Z,34.10
2022-08-05T14:20:49.044Z,34.29
2022-08-05T14:23:25.603Z,34.58
2022-08-05T14:25:58.640Z,34.78
2022-08-05T14:28:28.970Z,34.69
2022-08-05T14:30:57.980Z,34.68
2022-08-05T14:33:25.654Z,34.27
2022-08-05T14:35:54.435Z,33.99
2022-08-05T14:38:31.612Z,34.00
2022-08-05T14:41:06.320Z,34.14
2022-08-05T14:43:58.767Z,34.24
2022-08-05T14:46:28.732Z,34.15
2022-08-05T14:49:03.409Z,34.27
2022-08-05T14:51:35.717Z,34.38
2022-08-05T14:54:27.094Z,34.26
2022-08-05T14:56:50.983Z,34.15
2022-08-05T14:59:21.751Z,34.12
2022-08-05T15:01:50.148Z,34.08
2022-08-05T15:04:22.469Z,33.98
2022-08-05T15:06:51.260Z,34.07
2022-08-05T15:09:51.790Z,34.19
2022-08-05T15:12:16.543Z,34.26
2022-08-05T15:14:50.220Z,34.38
2022-08-05T15:17:45.867Z,34.37
2022-08-05T15:20:19.071Z,34.31
2022-08-05T15:22:54.308Z,34.26
2022-08-05T15:25:41.017Z,34.24
2022-08-05T15:28:13.336Z,34.12
2022-08-05T15:30:46.404Z,33.96
2022-08-05T15:34:18.535Z,33.89
2022-08-05T15:36:06.301Z,33.91
2022-08-05T15:38:44.827Z,33.93
2022-08-05T15:41:22.917Z,33.96
2022-08-05T15:43:51.872Z,33.53
2022-08-05T15:46:24.127Z,33.63
2022-08-05T15:49:00.563Z,33.57
2022-08-05T15:52:03.799Z,33.43
2022-08-05T15:54:17.775Z,33.38
2022-08-05T15:56:45.358Z,33.43
2022-08-05T15:59:21.934Z,33.33
2022-08-05T16:01:53.316Z,33.33
2022-08-05T16:04:25.798Z,33.36
2022-08-05T16:06:55.503Z,33.19
2022-08-05T16:09:24.343Z,33.37
2022-08-05T16:11:53.186Z,33.35
2022-08-05T16:14:22.393Z,33.31
2022-08-05T16:16:50.676Z,33.27
2022-08-05T16:20:02.787Z,33.19
2022-08-05T16:22:10.466Z,32.98
2022-08-05T16:24:41.307Z,32.94
2022-08-05T16:27:18.237Z,32.84
2022-08-05T16:29:50.350Z,32.90
2022-08-05T16:32:23.284Z,32.88
2022-08-05T16:34:58.774Z,32.90
2022-08-05T16:38:03.119Z,32.82
2022-08-05T16:40:26.576Z,32.71
2022-08-05T16:42:57.151Z,32.52
2022-08-05T16:46:05.011Z,32.41
2022-08-05T16:48:12.019Z,32.44
2022-08-05T16:50:54.446Z,32.36
2022-08-05T16:54:02.847Z,32.26
2022-08-05T16:56:10.266Z,32.16
2022-08-05T16:58:41.073Z,32.06
2022-08-05T17:01:09.479Z,32.05
2022-08-05T17:03:38.970Z,32.01
2022-08-05T17:06:06.792Z,31.96
2022-08-05T17:08:52.324Z,31.83
2022-08-05T17:11:25.676Z,31.68
2022-08-05T17:14:00.379Z,31.38
2022-08-05T17:16:36.594Z,31.37
2022-08-05T17:19:07.355Z,31.34
2022-08-05T17:21:39.364Z,31.27
2022-08-05T17:24:19.553Z,31.15
2022-08-05T17:26:57.712Z,30.99
2022-08-05T17:29:33.164Z,30.91
2022-08-05T17:32:01.622Z,30.81
2022-08-05T17:34:30.038Z,30.78
2022-08-05T17:37:00.503Z,30.78
2022-08-05T17:39:34.309Z,30.76
2022-08-05T17:42:18.316Z,30.72
2022-08-05T17:44:50.472Z,30.68
2022-08-05T17:47:22.047Z,30.56
2022-08-05T17:49:52.096Z,30.42
2022-08-05T17:52:31.970Z,30.28
2022-08-05T17:54:59.735Z,30.17
2022-08-05T17:57:27.979Z,29.75
2022-08-05T18:00:05.458Z,29.27
2022-08-05T18:02:34.120Z,29.07
2022-08-05T18:05:07.741Z,28.66
2022-08-05T18:07:41.536Z,28.44
2022-08-05T18:10:14.060Z,28.10
2022-08-05T18:12:49.379Z,27.91
2022-08-05T18:15:17.025Z,27.84
2022-08-05T18:17:59.230Z,27.45
2022-08-05T18:20:32.145Z,27.00
2022-08-05T18:23:09.557Z,26.86
2022-08-05T18:25:45.168Z,26.80
2022-08-05T18:28:16.092Z,26.57
2022-08-05T18:30:45.937Z,26.39
2022-08-05T18:33:23.157Z,26.37
2022-08-05T18:36:03.424Z,26.12
2022-08-05T18:38:36.249Z,25.79
2022-08-05T18:41:57.093Z,25.67
2022-08-05T18:43:55.672Z,25.46
2022-08-05T18:46:26.016Z,25.36
2022-08-05T18:48:56.720Z,25.13
2022-08-05T18:52:04.498Z,24.91
2022-08-05T18:54:31.916Z,24.83
2022-08-05T18:57:03.461Z,24.53
2022-08-05T18:59:42.907Z,24.39
2022-08-05T19:02:27.812Z,24.38
2022-08-05T19:05:02.418Z,24.23
2022-08-05T19:07:47.988Z,24.16
2022-08-05T19:10:17.298Z,24.23
2022-08-05T19:12:46.072Z,24.18
2022-08-05T19:15:57.083Z,24.09
2022-08-05T19:18:10.016Z,23.97
2022-08-05T19:20:46.588Z,23.85
2022-08-05T19:24:04.941Z,23.81
2022-08-05T19:26:03.396Z,23.84
2022-08-05T19:28:33.011Z,23.79
2022-08-05T19:31:01.069Z,23.75
2022-08-05T19:33:33.951Z,23.62
2022-08-05T19:36:05.923Z,23.61
2022-08-05T19:38:35.869Z,23.49
2022-08-05T19:41:07.116Z,23.37
2022-08-05T19:44:05.729Z,23.39
2022-08-05T19:46:29.215Z,23.06
2022-08-05T19:49:01.036Z,22.93
2022-08-05T19:52:05.889Z,22.99
2022-08-05T19:54:26.760Z,22.75
2022-08-05T19:57:06.703Z,22.65
2022-08-05T19:59:56.487Z,22.68
2022-08-05T20:02:27.039Z,22.63
2022-08-05T20:04:59.187Z,22.69
2022-08-05T20:07:46.003Z,22.70
2022-08-05T20:10:19.351Z,22.69
2022-08-05T20:12:49.853Z,22.65
2022-08-05T20:15:23.364Z,22.63
2022-08-05T20:18:10.491Z,22.15
2022-08-05T20:20:56.924Z,22.37
2022-08-05T20:23:44.632Z,22.47
2022-08-05T20:26:15.200Z,22.42
2022-08-05T20:28:49.793Z,22.34
2022-08-05T20:31:28.249Z,22.38
2022-08-05T20:34:04.560Z,22.37
2022-08-05T20:36:31.981Z,22.31
2022-08-05T20:39:00.300Z,22.31
2022-08-05T20:41:44.526Z,21.97
2022-08-05T20:44:30.394Z,21.97
2022-08-05T20:47:03.180Z,21.92
2022-08-05T20:49:37.772Z,21.61
2022-08-05T20:52:10.725Z,21.83
2022-08-05T20:54:55.315Z,21.61
2022-08-05T20:57:43.230Z,21.59
2022-08-05T21:00:40.029Z,21.60
2022-08-05T21:03:06.808Z,21.39
2022-08-05T21:05:54.312Z,21.36
2022-08-05T21:08:32.832Z,21.31
2022-08-05T21:12:06.525Z,21.29
2022-08-05T21:14:02.470Z,21.02
2022-08-05T21:16:30.931Z,20.97
2022-08-05T21:19:00.654Z,20.78
2022-08-05T21:21:39.305Z,20.63
2022-08-05T21:24:12.529Z,20.51
2022-08-05T21:26:41.455Z,20.42
2022-08-05T21:29:12.644Z,20.57
2022-08-05T21:31:44.857Z,20.75
2022-08-05T21:34:12.775Z,20.70
2022-08-05T21:36:42.278Z,20.56
2022-08-05T21:39:14.249Z,20.67
2022-08-05T21:41:52.616Z,20.72
2022-08-05T21:44:28.570Z,20.58
2022-08-05T21:46:58.073Z,20.58
2022-08-05T21:49:48.666Z,20.70
2022-08-05T21:52:23.004Z,20.62
2022-08-05T21:55:06.284Z,20.58
2022-08-05T21:57:35.467Z,20.57
2022-08-05T22:00:06.415Z,20.56
2022-08-05T22:02:41.701Z,20.30
2022-08-05T22:05:11.586Z,20.27
2022-08-05T22:07:59.518Z,20.22
2022-08-05T22:10:28.622Z,20.18
2022-08-05T22:14:05.175Z,20.07
2022-08-05T22:16:00.852Z,20.01
2022-08-05T22:18:42.858Z,20.01
2022-08-05T22:21:19.108Z,19.71
2022-08-05T22:24:12.994Z,19.91
2022-08-05T22:26:59.878Z,19.85
2022-08-05T22:29:30.689Z,19.86
2022-08-05T22:32:02.751Z,19.94
2022-08-05T22:34:34.441Z,19.90
2022-08-05T22:37:05.548Z,19.88
2022-08-05T22:39:34.698Z,19.85
2022-08-05T22:42:12.201Z,19.77
2022-08-05T22:44:48.243Z,19.77
2022-08-05T22:47:29.199Z,19.76
2022-08-05T22:50:21.041Z,19.86
2022-08-05T22:52:50.023Z,19.86
2022-08-05T22:55:22.031Z,19.47
2022-08-05T22:57:51.622Z,19.53
2022-08-05T23:00:21.714Z,19.23
2022-08-05T23:02:51.941Z,18.88
2022-08-05T23:05:22.145Z,18.81
2022-08-05T23:07:50.765Z,18.69
2022-08-05T23:10:20.824Z,18.63
2022-08-05T23:12:54.901Z,18.50
2022-08-05T23:15:26.917Z,18.50
2022-08-05T23:18:00.970Z,18.40
2022-08-05T23:20:32.360Z,18.34
2022-08-05T23:23:00.738Z,18.32
2022-08-05T23:25:52.346Z,18.27
2022-08-05T23:28:21.960Z,18.16
2022-08-05T23:30:53.987Z,18.07
2022-08-05T23:33:26.479Z,18.03
2022-08-05T23:36:13.567Z,18.00
2022-08-05T23:38:42.826Z,18.05
2022-08-05T23:41:11.892Z,18.02
2022-08-05T23:44:05.848Z,17.95
2022-08-05T23:46:29.785Z,17.80
2022-08-05T23:49:00.746Z,17.84
2022-08-05T23:51:53.647Z,17.85
2022-08-05T23:54:26.056Z,17.76
2022-08-05T23:56:55.744Z,17.86
